Time;durP1;ratioP1;P1;durP2;ratioP2;P2;SDS_P1;SDS_P2;PMS_P1;PMS_P2;Temp;Humidity;BMP_temperature;BMP_pressure;BME280_temperature;BME280_humidity;BME280_pressure;Samples;Min_cycle;Max_cycle;Signal;HPM_P1;HPM_P2
2022/03/13 00:00:36;;;;;;;3.77;2.57;;;7.90;99.90;;;;;;5081453;28;20288;-76
2022/03/13 00:03:03;;;;;;;3.13;2.67;;;7.90;99.90;;;;;;5095153;28;20661;-75
2022/03/13 00:05:30;;;;;;;2.93;2.53;;;7.90;99.90;;;;;;5091506;28;20245;-75
2022/03/13 00:07:57;;;;;;;4.30;2.70;;;7.90;99.90;;;;;;5091763;28;20540;-76
2022/03/13 00:10:28;;;;;;;3.47;2.70;;;7.90;99.90;;;;;;5087248;28;20206;-76
2022/03/13 00:12:55;;;;;;;2.90;2.17;;;7.90;99.90;;;;;;5095276;28;20695;-76
2022/03/13 00:15:26;;;;;;;4.10;2.90;;;8.00;99.90;;;;;;5080912;28;20275;-75
2022/03/13 00:17:55;;;;;;;4.90;2.90;;;8.00;99.90;;;;;;5086041;28;20281;-75
2022/03/13 00:20:22;;;;;;;4.57;2.97;;;7.90;99.90;;;;;;5100255;28;20236;-75
2022/03/13 00:22:49;;;;;;;3.97;2.87;;;7.80;99.90;;;;;;5079803;28;20199;-75
2022/03/13 00:25:16;;;;;;;3.20;2.70;;;7.90;99.90;;;;;;5092794;28;20313;-76
2022/03/13 00:27:43;;;;;;;4.03;3.00;;;7.90;99.90;;;;;;5101989;28;20282;-75
2022/03/13 00:30:12;;;;;;;4.10;3.10;;;7.90;99.90;;;;;;5074639;28;20208;-76
2022/03/13 00:32:39;;;;;;;3.37;2.70;;;8.00;99.90;;;;;;5079973;28;20205;-75
2022/03/13 00:35:08;;;;;;;4.07;3.10;;;7.90;99.90;;;;;;5092348;28;20212;-75
2022/03/13 00:37:35;;;;;;;4.87;3.10;;;7.90;99.90;;;;;;5096201;28;20842;-76
2022/03/13 00:40:02;;;;;;;3.40;2.80;;;8.00;99.90;;;;;;5082876;28;20285;-75
2022/03/13 00:42:29;;;;;;;3.57;3.10;;;7.90;99.90;;;;;;5091945;28;20226;-76
2022/03/13 00:44:56;;;;;;;4.73;3.00;;;7.90;99.90;;;;;;5086532;28;20222;-75
2022/03/13 00:47:23;;;;;;;3.03;2.73;;;7.80;99.90;;;;;;5080417;28;20281;-75
2022/03/13 00:49:51;;;;;;;3.47;3.03;;;7.80;99.90;;;;;;5083552;28;20226;-75
2022/03/13 00:52:19;;;;;;;3.30;2.93;;;7.90;99.90;;;;;;5088033;28;20206;-76
2022/03/13 00:54:46;;;;;;;3.37;3.00;;;7.80;99.90;;;;;;5094281;28;20293;-75
2022/03/13 00:57:13;;;;;;;4.93;2.80;;;7.90;99.90;;;;;;5082737;28;20210;-76
2022/03/13 00:59:41;;;;;;;3.20;2.73;;;7.80;99.90;;;;;;5095478;28;20266;-76
2022/03/13 01:02:10;;;;;;;3.23;2.83;;;7.90;99.90;;;;;;5082710;28;20563;-76
2022/03/13 01:04:38;;;;;;;3.97;2.97;;;7.90;99.90;;;;;;5080193;28;20331;-76
2022/03/13 01:07:05;;;;;;;3.93;3.17;;;7.90;99.90;;;;;;5088110;27;20214;-76
2022/03/13 01:09:34;;;;;;;3.43;2.97;;;7.90;99.90;;;;;;5100383;28;20681;-76
2022/03/13 01:12:01;;;;;;;3.27;2.97;;;7.90;99.90;;;;;;5105359;28;20197;-75
2022/03/13 01:14:33;;;;;;;3.50;2.90;;;7.80;99.90;;;;;;5100742;28;20232;-75
2022/03/13 01:17:02;;;;;;;3.20;2.80;;;7.80;99.90;;;;;;5089006;28;20191;-75
2022/03/13 01:19:30;;;;;;;3.17;2.60;;;7.80;99.90;;;;;;5117968;27;20755;-75
2022/03/13 01:21:57;;;;;;;4.43;3.30;;;7.80;99.90;;;;;;5080803;28;20742;-75
2022/03/13 01:24:43;;;;;;;3.43;3.00;;;7.90;99.90;;;;;;5081729;28;20543;-75
2022/03/13 01:27:11;;;;;;;4.07;3.00;;;7.80;99.90;;;;;;5100481;28;20664;-76
2022/03/13 01:29:39;;;;;;;4.90;3.20;;;7.90;99.90;;;;;;5073806;28;20226;-76
2022/03/13 01:32:10;;;;;;;3.10;2.67;;;7.90;99.90;;;;;;5082146;28;20293;-75
2022/03/13 01:34:43;;;;;;;3.40;3.03;;;7.90;99.90;;;;;;5087230;28;20214;-75
2022/03/13 01:37:15;;;;;;;3.30;2.80;;;8.00;99.90;;;;;;5079184;28;20262;-76
2022/03/13 01:39:43;;;;;;;3.20;2.67;;;8.00;99.90;;;;;;5092341;28;20230;-76
2022/03/13 01:42:11;;;;;;;4.57;3.10;;;7.80;99.90;;;;;;5092683;28;20237;-76
2022/03/13 01:44:39;;;;;;;4.13;3.13;;;7.80;99.90;;;;;;5082733;28;20256;-76
2022/03/13 01:47:07;;;;;;;4.40;3.20;;;7.90;99.90;;;;;;5089706;28;20198;-77
2022/03/13 01:49:34;;;;;;;4.73;3.23;;;7.90;99.90;;;;;;5093545;28;20201;-77
2022/03/13 01:52:01;;;;;;;3.53;3.20;;;7.70;99.90;;;;;;5082078;28;20248;-76
2022/03/13 01:54:30;;;;;;;3.63;3.17;;;7.70;99.90;;;;;;5090629;28;20199;-76
2022/03/13 01:57:00;;;;;;;4.60;3.27;;;7.70;99.90;;;;;;5094043;28;20201;-76
2022/03/13 01:59:29;;;;;;;3.73;2.83;;;7.80;99.90;;;;;;5099745;28;20217;-76
2022/03/13 02:01:57;;;;;;;3.93;3.00;;;7.80;99.90;;;;;;5093562;28;20198;-76
2022/03/13 02:04:26;;;;;;;3.77;3.07;;;7.80;99.90;;;;;;5091378;28;20553;-76
2022/03/13 02:06:56;;;;;;;4.50;3.20;;;7.80;99.90;;;;;;5082256;28;20206;-76
2022/03/13 02:09:23;;;;;;;4.07;3.13;;;7.80;99.90;;;;;;5101145;28;20202;-76
2022/03/13 02:11:51;;;;;;;4.43;3.07;;;7.60;99.90;;;;;;5088188;28;20285;-75
2022/03/13 02:14:22;;;;;;;3.30;3.00;;;7.60;99.90;;;;;;5092684;28;20201;-75
2022/03/13 02:16:49;;;;;;;4.20;3.03;;;7.50;99.90;;;;;;5102448;28;20220;-75
2022/03/13 02:19:17;;;;;;;5.20;3.40;;;7.40;99.90;;;;;;5085802;28;20734;-75
2022/03/13 02:21:48;;;;;;;5.17;3.10;;;7.40;99.90;;;;;;5089102;28;20230;-75
2022/03/13 02:24:17;;;;;;;3.10;2.70;;;7.40;99.90;;;;;;5072990;28;20202;-75
2022/03/13 02:26:55;;;;;;;4.00;3.10;;;7.30;99.90;;;;;;5085627;28;20303;-75
2022/03/13 02:29:22;;;;;;;5.10;3.20;;;7.30;99.90;;;;;;5092667;28;20211;-75
2022/03/13 02:31:50;;;;;;;3.57;3.07;;;7.30;99.90;;;;;;5092313;28;20224;-75
2022/03/13 02:34:18;;;;;;;4.03;2.97;;;7.30;99.90;;;;;;5092573;28;20592;-74
2022/03/13 02:37:02;;;;;;;3.20;2.90;;;7.30;99.90;;;;;;5082950;28;20332;-75
2022/03/13 02:39:36;;;;;;;3.63;2.60;;;7.20;99.90;;;;;;5072595;28;20571;-75
2022/03/13 02:42:05;;;;;;;4.27;3.07;;;7.20;99.90;;;;;;5091802;28;20240;-75
2022/03/13 02:44:32;;;;;;;2.73;2.53;;;7.20;99.90;;;;;;5092846;28;20289;-75
2022/03/13 02:47:01;;;;;;;3.97;2.90;;;7.20;99.90;;;;;;5095327;28;20256;-75
2022/03/13 02:49:30;;;;;;;3.17;2.70;;;7.30;99.90;;;;;;5078374;28;20234;-75
2022/03/13 02:52:01;;;;;;;3.00;2.70;;;7.40;99.90;;;;;;5087728;28;20284;-76
2022/03/13 02:54:28;;;;;;;4.73;2.93;;;7.20;99.90;;;;;;5084898;28;20225;-76
2022/03/13 02:56:58;;;;;;;5.00;2.90;;;7.20;99.90;;;;;;5091925;28;20237;-75
2022/03/13 02:59:25;;;;;;;4.93;2.80;;;7.30;99.90;;;;;;5092100;28;20257;-76
2022/03/13 03:01:52;;;;;;;3.50;2.80;;;7.30;99.90;;;;;;5102363;28;20222;-76
2022/03/13 03:04:24;;;;;;;3.83;3.17;;;7.30;99.90;;;;;;5091681;28;20301;-76
2022/03/13 03:07:02;;;;;;;3.97;3.30;;;7.30;99.90;;;;;;5091696;28;20225;-76
2022/03/13 03:09:30;;;;;;;5.03;3.10;;;7.20;99.90;;;;;;5088775;28;20226;-76
2022/03/13 03:12:00;;;;;;;3.67;3.03;;;7.20;99.90;;;;;;5072083;28;20206;-76
2022/03/13 03:14:30;;;;;;;3.53;2.60;;;7.30;99.90;;;;;;5087607;28;20261;-75
2022/03/13 03:16:57;;;;;;;4.17;2.50;;;7.20;99.90;;;;;;5092275;28;20279;-76
2022/03/13 03:19:23;;;;;;;6.00;2.70;;;7.30;99.90;;;;;;5084334;28;20290;-76
2022/03/13 03:21:52;;;;;;;4.70;2.60;;;7.20;99.90;;;;;;5071596;28;20292;-76
2022/03/13 03:24:21;;;;;;;6.27;2.90;;;7.10;99.90;;;;;;5071424;28;20202;-76
2022/03/13 03:26:48;;;;;;;4.97;2.57;;;7.20;99.90;;;;;;5071912;28;20319;-76
2022/03/13 03:29:17;;;;;;;4.30;2.27;;;7.20;99.90;;;;;;5071872;28;20205;-76
2022/03/13 03:31:46;;;;;;;4.97;2.27;;;7.20;99.90;;;;;;5071459;28;20246;-77
2022/03/13 03:34:15;;;;;;;4.33;2.00;;;7.20;99.90;;;;;;5078212;28;20230;-76
2022/03/13 03:36:47;;;;;;;3.63;2.07;;;7.30;99.90;;;;;;5091860;28;20228;-76
2022/03/13 03:39:15;;;;;;;4.67;2.20;;;7.40;99.90;;;;;;5083829;28;20679;-76
2022/03/13 03:41:43;;;;;;;4.27;2.00;;;7.20;99.90;;;;;;5071527;28;20237;-76
2022/03/13 03:44:10;;;;;;;4.67;1.73;;;7.30;99.90;;;;;;5072433;28;20613;-76
2022/03/13 03:46:39;;;;;;;3.30;1.73;;;7.30;99.90;;;;;;5089491;28;20217;-76
2022/03/13 03:49:06;;;;;;;6.20;2.03;;;7.30;99.90;;;;;;5071605;28;20235;-76
2022/03/13 03:51:33;;;;;;;3.33;1.97;;;7.20;99.90;;;;;;5079714;28;20232;-76
2022/03/13 03:54:00;;;;;;;3.03;1.87;;;7.20;99.90;;;;;;5085610;28;20205;-76
2022/03/13 03:56:27;;;;;;;5.03;2.50;;;7.20;99.90;;;;;;5078816;28;20635;-76
2022/03/13 03:58:54;;;;;;;3.37;2.03;;;7.20;99.90;;;;;;5100682;28;20313;-76
2022/03/13 04:01:21;;;;;;;3.43;2.13;;;7.30;99.90;;;;;;5091623;28;20716;-76
2022/03/13 04:03:50;;;;;;;2.77;2.03;;;7.20;99.90;;;;;;5083158;28;20246;-76
2022/03/13 04:06:17;;;;;;;6.33;2.63;;;7.10;99.90;;;;;;5095865;28;20223;-76
2022/03/13 04:08:44;;;;;;;3.73;2.30;;;7.20;99.90;;;;;;5095513;28;20204;-76
2022/03/13 04:11:11;;;;;;;4.77;2.27;;;7.20;99.90;;;;;;5095426;28;20728;-76
2022/03/13 04:13:39;;;;;;;3.73;2.53;;;7.20;99.90;;;;;;5087154;28;20250;-76
2022/03/13 04:16:08;;;;;;;5.33;2.90;;;7.20;99.90;;;;;;5107305;28;20553;-76
2022/03/13 04:18:35;;;;;;;7.73;3.13;;;7.20;99.90;;;;;;5112599;28;20229;-76
2022/03/13 04:21:05;;;;;;;3.60;2.60;;;7.30;99.90;;;;;;5092101;28;20257;-76
2022/03/13 04:23:33;;;;;;;3.27;2.50;;;7.30;99.90;;;;;;5087596;28;20288;-76
2022/03/13 04:26:00;;;;;;;5.67;3.10;;;7.50;99.90;;;;;;5084252;28;20792;-76
2022/03/13 04:28:27;;;;;;;6.77;2.97;;;7.50;99.90;;;;;;5074810;28;20212;-76
2022/03/13 04:30:56;;;;;;;3.80;2.53;;;7.40;99.90;;;;;;5074499;28;20238;-76
2022/03/13 04:33:25;;;;;;;4.93;2.50;;;7.40;99.90;;;;;;5074803;28;20209;-76
2022/03/13 04:35:55;;;;;;;3.70;2.83;;;7.50;99.90;;;;;;5097368;28;20725;-76
2022/03/13 04:38:25;;;;;;;3.33;2.70;;;7.40;99.90;;;;;;5100740;28;20569;-76
2022/03/13 04:40:53;;;;;;;4.83;2.93;;;7.40;99.90;;;;;;5099364;28;20205;-76
2022/03/13 04:43:21;;;;;;;4.27;2.47;;;7.30;99.90;;;;;;5082734;28;20638;-76
2022/03/13 04:45:48;;;;;;;4.50;3.13;;;7.30;99.90;;;;;;5086749;28;20221;-76
2022/03/13 04:48:15;;;;;;;6.60;2.93;;;7.30;99.90;;;;;;5088374;28;20194;-75
2022/03/13 04:50:43;;;;;;;4.00;2.77;;;7.30;99.90;;;;;;5094234;28;20231;-76
2022/03/13 04:53:10;;;;;;;4.30;2.50;;;7.30;99.90;;;;;;5086336;28;20281;-76
2022/03/13 04:55:39;;;;;;;5.70;3.30;;;7.40;99.90;;;;;;5082162;28;20222;-76
2022/03/13 04:58:12;;;;;;;5.80;3.00;;;7.40;99.90;;;;;;5082142;28;20289;-76
2022/03/13 05:00:39;;;;;;;6.80;3.43;;;7.20;99.90;;;;;;5114897;28;20210;-76
2022/03/13 05:03:09;;;;;;;6.93;2.97;;;7.20;99.90;;;;;;5094546;28;20202;-77
2022/03/13 05:05:36;;;;;;;5.23;2.90;;;7.20;99.90;;;;;;5094205;28;20202;-76
2022/03/13 05:08:05;;;;;;;6.53;3.30;;;7.20;99.90;;;;;;5094727;28;20241;-76
2022/03/13 05:10:36;;;;;;;5.70;3.23;;;7.40;99.90;;;;;;5079511;28;20206;-76
2022/03/13 05:13:08;;;;;;;5.73;3.20;;;7.30;99.90;;;;;;5082469;28;20705;-77
2022/03/13 05:15:36;;;;;;;5.40;3.20;;;7.40;99.90;;;;;;5111299;28;20652;-76
2022/03/13 05:18:04;;;;;;;7.80;3.30;;;7.30;99.90;;;;;;5076729;28;20234;-75
2022/03/13 05:20:35;;;;;;;8.37;3.60;;;7.30;99.90;;;;;;5073110;28;20763;-76
2022/03/13 05:23:03;;;;;;;5.70;3.60;;;7.40;99.90;;;;;;5076327;28;20858;-76
2022/03/13 05:25:32;;;;;;;3.83;2.93;;;7.30;99.90;;;;;;5086550;28;20209;-76
2022/03/13 05:27:59;;;;;;;4.33;3.13;;;7.30;99.90;;;;;;5073865;28;20205;-75
2022/03/13 05:30:28;;;;;;;4.73;3.37;;;7.30;99.90;;;;;;5073808;28;20655;-76
2022/03/13 05:32:56;;;;;;;5.60;3.50;;;7.20;99.90;;;;;;5073462;28;20235;-75
2022/03/13 05:35:23;;;;;;;6.77;3.47;;;7.30;99.90;;;;;;5073880;28;20286;-76
2022/03/13 05:37:50;;;;;;;6.53;3.40;;;7.30;99.90;;;;;;5110078;28;20197;-76
2022/03/13 05:40:19;;;;;;;4.30;3.20;;;7.20;99.90;;;;;;5079557;28;20679;-76
2022/03/13 05:42:49;;;;;;;4.80;3.20;;;7.20;99.90;;;;;;5073396;28;20229;-76
2022/03/13 05:45:19;;;;;;;5.47;3.60;;;7.10;99.90;;;;;;5082378;28;20207;-76
2022/03/13 05:47:49;;;;;;;6.53;3.40;;;7.20;99.90;;;;;;5085328;28;20218;-76
2022/03/13 05:50:18;;;;;;;5.00;3.37;;;7.20;99.90;;;;;;5085374;28;20236;-76
2022/03/13 05:52:46;;;;;;;9.60;3.33;;;7.20;99.90;;;;;;5093701;28;20236;-75
2022/03/13 05:55:14;;;;;;;7.10;3.70;;;7.10;99.90;;;;;;5093677;28;20609;-76
2022/03/13 05:57:44;;;;;;;7.40;3.43;;;7.10;99.90;;;;;;5093646;28;20229;-75
2022/03/13 06:00:14;;;;;;;8.63;3.50;;;7.10;99.90;;;;;;5091744;28;20246;-76
2022/03/13 06:02:41;;;;;;;7.17;3.40;;;7.30;99.90;;;;;;5093092;28;20198;-75
2022/03/13 06:05:11;;;;;;;4.27;3.03;;;7.10;99.90;;;;;;5092176;28;20244;-76
2022/03/13 06:07:38;;;;;;;7.30;3.60;;;7.20;99.90;;;;;;5100192;28;20226;-76
2022/03/13 06:10:06;;;;;;;7.30;3.63;;;7.10;99.90;;;;;;5080745;28;20245;-75
2022/03/13 06:12:34;;;;;;;6.37;3.20;;;7.00;99.90;;;;;;5092975;28;20234;-75
2022/03/13 06:15:02;;;;;;;9.10;3.20;;;7.10;99.90;;;;;;5072822;28;20289;-75
2022/03/13 06:17:29;;;;;;;4.80;2.97;;;7.10;99.90;;;;;;5072682;28;20234;-75
2022/03/13 06:19:56;;;;;;;4.73;2.93;;;7.00;99.90;;;;;;5081579;28;20302;-76
2022/03/13 06:22:25;;;;;;;6.33;3.20;;;7.10;99.90;;;;;;5078538;28;20194;-75
2022/03/13 06:24:52;;;;;;;6.17;2.93;;;7.10;99.90;;;;;;5087759;28;20278;-76
2022/03/13 06:27:21;;;;;;;5.80;3.00;;;7.10;99.90;;;;;;5071981;28;20664;-76
2022/03/13 06:29:48;;;;;;;5.93;3.30;;;6.90;99.90;;;;;;5072343;28;20213;-76
2022/03/13 06:32:15;;;;;;;6.83;3.23;;;7.10;99.90;;;;;;5078455;28;20230;-75
2022/03/13 06:34:42;;;;;;;7.13;2.90;;;6.90;99.90;;;;;;5093087;28;20288;-75
2022/03/13 06:37:10;;;;;;;8.07;3.03;;;7.10;99.90;;;;;;5087094;28;20284;-75
2022/03/13 06:39:38;;;;;;;7.07;2.80;;;6.90;99.90;;;;;;5073130;28;20199;-75
2022/03/13 06:42:05;;;;;;;5.47;2.83;;;6.90;99.90;;;;;;5089362;28;20241;-75
2022/03/13 06:44:32;;;;;;;7.63;2.80;;;7.00;99.90;;;;;;5091252;28;20244;-75
2022/03/13 06:47:00;;;;;;;5.93;2.67;;;7.00;99.90;;;;;;5090066;28;20296;-75
2022/03/13 06:49:27;;;;;;;7.40;3.00;;;7.00;99.90;;;;;;5102048;28;20284;-76
2022/03/13 06:51:54;;;;;;;7.93;3.40;;;7.00;99.90;;;;;;5101697;28;20207;-76
2022/03/13 06:54:20;;;;;;;6.50;2.83;;;7.10;99.90;;;;;;5084455;28;20921;-75
2022/03/13 06:56:50;;;;;;;6.90;2.90;;;7.00;99.90;;;;;;5074697;28;20290;-76
2022/03/13 06:59:17;;;;;;;5.93;2.93;;;7.00;99.90;;;;;;5092683;28;20229;-75
2022/03/13 07:01:44;;;;;;;11.17;2.90;;;7.20;99.90;;;;;;5090487;28;20601;-75
2022/03/13 07:04:12;;;;;;;7.17;2.80;;;7.10;99.90;;;;;;5092192;28;20205;-75
2022/03/13 07:06:39;;;;;;;5.73;2.60;;;7.10;99.90;;;;;;5091841;28;20221;-75
2022/03/13 07:09:06;;;;;;;7.70;2.40;;;7.10;99.90;;;;;;5087482;28;20242;-75
2022/03/13 07:11:34;;;;;;;5.87;2.37;;;7.00;99.90;;;;;;5088795;28;20695;-75
2022/03/13 07:14:02;;;;;;;5.07;2.27;;;7.00;99.90;;;;;;5100289;28;20220;-75
2022/03/13 07:16:29;;;;;;;7.80;2.47;;;7.00;99.90;;;;;;5088216;28;20680;-75
2022/03/13 07:18:56;;;;;;;5.60;2.40;;;6.90;99.90;;;;;;5070352;28;20689;-75
2022/03/13 07:21:23;;;;;;;8.77;2.67;;;7.10;99.90;;;;;;5072230;28;20768;-75
2022/03/13 07:23:50;;;;;;;8.33;2.80;;;7.00;99.90;;;;;;5071409;28;20739;-76
2022/03/13 07:26:17;;;;;;;5.73;2.33;;;7.10;99.90;;;;;;5071892;28;20236;-76
2022/03/13 07:28:43;;;;;;;9.17;2.33;;;6.90;99.90;;;;;;5071747;28;20255;-76
2022/03/13 07:31:12;;;;;;;8.50;2.33;;;7.00;99.90;;;;;;5071278;28;20234;-75
2022/03/13 07:33:39;;;;;;;9.13;2.20;;;6.90;99.90;;;;;;5104096;28;20626;-76
2022/03/13 07:36:06;;;;;;;6.83;2.23;;;6.90;99.90;;;;;;5104186;28;20206;-78
2022/03/13 07:38:33;;;;;;;7.13;2.20;;;7.00;99.90;;;;;;5074518;28;20237;-78
2022/03/13 07:41:00;;;;;;;7.27;2.00;;;7.00;99.90;;;;;;5099422;28;20611;-78
2022/03/13 07:43:27;;;;;;;6.37;2.00;;;7.10;99.90;;;;;;5099903;28;20201;-78
2022/03/13 07:45:54;;;;;;;8.93;1.77;;;6.90;99.90;;;;;;5100940;28;20700;-78
2022/03/13 07:48:22;;;;;;;3.97;1.80;;;7.00;99.90;;;;;;5075359;28;20737;-78
2022/03/13 07:50:49;;;;;;;5.87;1.80;;;7.00;99.90;;;;;;5090586;28;20259;-78
2022/03/13 07:53:16;;;;;;;8.00;2.23;;;7.00;99.90;;;;;;5094829;28;20237;-77
2022/03/13 07:55:43;;;;;;;3.87;1.80;;;7.00;99.90;;;;;;5075452;28;20206;-77
2022/03/13 07:58:10;;;;;;;4.53;1.80;;;7.10;99.90;;;;;;5075201;28;20214;-77
2022/03/13 08:00:37;;;;;;;4.67;1.27;;;7.00;99.90;;;;;;5075123;28;20294;-77
2022/03/13 08:03:03;;;;;;;5.17;1.50;;;7.00;99.90;;;;;;5075392;28;20614;-78
2022/03/13 08:05:32;;;;;;;4.77;1.60;;;7.10;99.90;;;;;;5095578;28;20229;-77
2022/03/13 08:07:59;;;;;;;6.87;1.57;;;7.20;99.90;;;;;;5105807;28;20305;-77
2022/03/13 08:10:26;;;;;;;4.37;1.60;;;7.20;99.90;;;;;;5108796;28;20247;-77
2022/03/13 08:12:54;;;;;;;5.63;1.70;;;7.20;99.90;;;;;;5110300;28;20262;-77
2022/03/13 08:15:21;;;;;;;4.70;1.33;;;7.30;99.90;;;;;;5075952;28;20214;-77
2022/03/13 08:17:48;;;;;;;5.53;1.60;;;7.40;99.90;;;;;;5075074;28;20192;-77
2022/03/13 08:20:15;;;;;;;5.00;1.30;;;7.30;99.90;;;;;;5074626;28;20262;-78
2022/03/13 08:22:43;;;;;;;6.03;1.60;;;7.20;99.90;;;;;;5074582;28;20195;-77
2022/03/13 08:25:16;;;;;;;3.67;1.03;;;7.20;99.90;;;;;;5075239;28;20199;-79
2022/03/13 08:27:43;;;;;;;3.93;1.40;;;7.30;99.90;;;;;;5075558;28;20220;-78
2022/03/13 08:30:11;;;;;;;6.17;1.17;;;7.30;99.90;;;;;;5074749;28;20294;-77
2022/03/13 08:32:38;;;;;;;3.73;1.40;;;7.40;99.90;;;;;;5081528;28;20556;-77
2022/03/13 08:35:07;;;;;;;5.17;1.13;;;7.30;99.90;;;;;;5088468;28;20195;-77
2022/03/13 08:37:34;;;;;;;4.10;1.57;;;7.40;99.90;;;;;;5082731;28;20230;-77
2022/03/13 08:40:03;;;;;;;3.10;0.90;;;7.50;99.90;;;;;;5088042;28;20226;-77
2022/03/13 08:42:30;;;;;;;2.83;0.83;;;7.40;99.90;;;;;;5091124;28;20681;-77
2022/03/13 08:44:58;;;;;;;4.20;1.07;;;7.30;99.90;;;;;;5094587;28;20198;-77
2022/03/13 08:47:25;;;;;;;3.87;0.90;;;7.50;99.90;;;;;;5094055;28;20737;-77
2022/03/13 08:49:52;;;;;;;4.40;0.97;;;7.40;99.90;;;;;;5082094;28;20202;-77
2022/03/13 08:52:19;;;;;;;4.37;1.10;;;7.40;99.90;;;;;;5096932;28;20688;-77
2022/03/13 08:54:46;;;;;;;3.00;1.00;;;7.40;99.90;;;;;;5086839;28;20198;-77
2022/03/13 08:57:14;;;;;;;5.13;1.47;;;7.50;99.90;;;;;;5094333;28;20201;-78
2022/03/13 08:59:41;;;;;;;6.10;1.30;;;7.40;99.90;;;;;;5094829;28;20220;-77
2022/03/13 09:02:09;;;;;;;4.50;1.10;;;7.50;99.90;;;;;;5093849;28;20195;-78
2022/03/13 09:04:36;;;;;;;3.10;1.10;;;7.40;99.90;;;;;;5083179;28;20199;-77
2022/03/13 09:07:03;;;;;;;5.37;1.33;;;7.40;99.90;;;;;;5092469;28;20592;-78
2022/03/13 09:09:30;;;;;;;4.90;1.40;;;7.30;99.90;;;;;;5076798;28;20710;-77
2022/03/13 09:11:59;;;;;;;6.93;1.50;;;7.40;99.90;;;;;;5079449;28;20233;-77
2022/03/13 09:14:27;;;;;;;4.43;1.30;;;7.40;99.90;;;;;;5093151;28;20207;-77
2022/03/13 09:16:54;;;;;;;6.03;1.43;;;7.40;99.90;;;;;;5088216;28;20282;-77
2022/03/13 09:19:21;;;;;;;4.03;1.40;;;7.20;99.90;;;;;;5093104;28;20664;-76
2022/03/13 09:21:48;;;;;;;3.70;1.20;;;7.20;99.90;;;;;;5085370;28;20259;-77
2022/03/13 09:24:16;;;;;;;2.63;1.33;;;7.10;99.90;;;;;;5087775;28;20231;-75
2022/03/13 09:26:45;;;;;;;4.33;1.17;;;7.20;99.90;;;;;;5073511;28;20198;-76
2022/03/13 09:29:12;;;;;;;4.37;1.30;;;7.20;99.90;;;;;;5075750;28;20220;-76
2022/03/13 09:31:41;;;;;;;4.03;1.30;;;7.30;99.90;;;;;;5092735;28;20281;-75
2022/03/13 09:34:08;;;;;;;4.00;1.40;;;7.50;99.90;;;;;;5092952;28;20205;-76
2022/03/13 09:36:36;;;;;;;2.70;1.30;;;7.50;99.90;;;;;;5091159;28;20209;-76
2022/03/13 09:39:04;;;;;;;5.27;1.57;;;7.40;99.90;;;;;;5087551;28;20284;-76
2022/03/13 09:41:30;;;;;;;3.83;1.70;;;7.60;99.90;;;;;;5083605;28;20217;-76
2022/03/13 09:43:57;;;;;;;6.90;2.07;;;7.60;99.90;;;;;;5083269;28;20283;-76
2022/03/13 09:46:24;;;;;;;5.67;1.80;;;7.60;99.90;;;;;;5074172;28;20235;-77
2022/03/13 09:48:54;;;;;;;4.53;1.83;;;7.60;99.90;;;;;;5086580;28;20691;-77
2022/03/13 09:51:21;;;;;;;7.83;1.70;;;7.70;99.90;;;;;;5079136;28;20609;-75
2022/03/13 09:53:49;;;;;;;8.90;2.00;;;7.70;99.90;;;;;;5092960;28;20669;-76
2022/03/13 09:56:17;;;;;;;4.70;1.40;;;7.80;99.90;;;;;;5074771;28;20231;-76
2022/03/13 09:58:45;;;;;;;5.70;1.43;;;7.80;99.90;;;;;;5083696;28;20268;-77
2022/03/13 10:01:13;;;;;;;7.90;2.10;;;7.80;99.90;;;;;;5083376;28;20220;-76
2022/03/13 10:03:40;;;;;;;4.50;1.67;;;7.90;99.90;;;;;;5076036;28;20199;-76
2022/03/13 10:06:09;;;;;;;4.90;1.93;;;8.10;99.90;;;;;;5085659;28;20679;-76
2022/03/13 10:08:35;;;;;;;6.03;1.80;;;8.00;99.90;;;;;;5072739;28;20262;-76
2022/03/13 10:11:03;;;;;;;4.63;1.50;;;8.10;99.90;;;;;;5077965;28;20285;-77
2022/03/13 10:13:36;;;;;;;7.40;2.40;;;8.00;99.90;;;;;;5081707;28;20211;-74
2022/03/13 10:16:05;;;;;;;4.43;1.10;;;8.10;99.90;;;;;;5082895;28;20567;-76
2022/03/13 10:18:33;;;;;;;10.47;1.83;;;8.20;99.90;;;;;;5079815;28;20682;-81
2022/03/13 10:21:11;;;;;;;6.87;1.30;;;8.30;99.90;;;;;;5081501;28;20224;-80
2022/03/13 10:23:38;;;;;;;6.73;1.53;;;8.30;99.90;;;;;;5089334;28;20285;-81
2022/03/13 10:26:06;;;;;;;7.97;1.70;;;8.50;99.90;;;;;;5085908;28;20288;-81
2022/03/13 10:28:34;;;;;;;6.00;1.43;;;8.50;99.90;;;;;;5086318;28;20225;-81
2022/03/13 10:31:15;;;;;;;10.63;1.67;;;8.60;99.90;;;;;;5088919;28;20228;-79
2022/03/13 10:33:55;;;;;;;4.97;1.80;;;8.80;99.90;;;;;;5086542;28;20626;-80
2022/03/13 10:36:31;;;;;;;5.30;1.43;;;8.70;99.90;;;;;;5078700;28;20206;-79
2022/03/13 10:39:00;;;;;;;9.07;2.53;;;8.60;99.90;;;;;;5088627;28;20197;-79
2022/03/13 10:41:47;;;;;;;7.00;1.80;;;8.70;99.90;;;;;;5072511;28;20226;-79
2022/03/13 10:44:16;;;;;;;6.13;1.40;;;8.90;99.90;;;;;;5084241;28;20256;-78
2022/03/13 10:46:44;;;;;;;6.83;1.60;;;9.00;99.90;;;;;;5082836;28;20291;-80
2022/03/13 10:49:13;;;;;;;5.27;1.70;;;8.90;99.90;;;;;;5084928;28;20229;-78
2022/03/13 10:51:45;;;;;;;6.40;1.50;;;9.10;99.90;;;;;;5088080;28;20201;-79
2022/03/13 10:54:28;;;;;;;6.90;1.90;;;9.20;99.90;;;;;;5088538;28;20211;-80
2022/03/13 10:57:06;;;;;;;6.50;1.90;;;9.60;99.90;;;;;;5081019;28;20550;-80
2022/03/13 10:59:33;;;;;;;9.20;2.10;;;10.00;99.90;;;;;;5088959;28;20218;-79
2022/03/13 11:02:14;;;;;;;4.03;1.80;;;10.00;99.90;;;;;;5086433;28;20229;-79
2022/03/13 11:04:49;;;;;;;8.00;1.63;;;10.70;99.90;;;;;;5075164;28;20194;-78
2022/03/13 11:07:19;;;;;;;5.53;1.50;;;10.40;99.90;;;;;;5074790;28;20198;-81
2022/03/13 11:09:46;;;;;;;6.43;1.83;;;10.70;99.90;;;;;;5081081;28;20271;-80
2022/03/13 11:12:20;;;;;;;8.83;2.10;;;11.00;99.90;;;;;;5086978;28;20310;-79
2022/03/13 11:14:49;;;;;;;7.17;2.27;;;11.40;99.90;;;;;;5083092;28;20206;-80
2022/03/13 11:17:18;;;;;;;11.17;2.23;;;11.80;99.90;;;;;;5087128;28;20208;-80
2022/03/13 11:19:49;;;;;;;7.13;1.87;;;11.60;99.90;;;;;;5083084;28;20260;-81
2022/03/13 11:22:20;;;;;;;8.67;1.83;;;11.50;99.90;;;;;;5084764;28;20230;-81
2022/03/13 11:24:50;;;;;;;12.57;2.20;;;11.80;99.90;;;;;;5088734;28;20194;-81
2022/03/13 11:27:17;;;;;;;8.60;2.10;;;11.50;99.90;;;;;;5084551;28;20198;-81
2022/03/13 11:29:46;;;;;;;8.17;1.63;;;11.40;99.90;;;;;;5084396;28;20222;-81
2022/03/13 11:32:30;;;;;;;11.37;2.43;;;11.80;99.90;;;;;;5086834;28;20198;-81
2022/03/13 11:35:34;;;;;;;11.13;2.70;;;12.20;99.90;;;;;;5088993;28;20221;-81
2022/03/13 11:38:22;;;;;;;9.10;2.40;;;13.30;99.90;;;;;;5084830;28;20226;-81
2022/03/13 11:40:50;;;;;;;11.70;2.30;;;12.90;99.90;;;;;;5090244;28;20243;-80
2022/03/13 11:43:19;;;;;;;10.00;1.77;;;12.60;99.90;;;;;;5085758;28;20566;-80
2022/03/13 11:45:53;;;;;;;11.50;3.07;;;12.70;99.90;;;;;;5089753;28;20230;-81
2022/03/13 11:48:39;;;;;;;8.33;2.00;;;12.70;99.90;;;;;;5084483;28;20308;-80
2022/03/13 11:51:07;;;;;;;9.63;2.00;;;12.80;99.90;;;;;;5083258;28;20669;-80
2022/03/13 11:53:45;;;;;;;12.03;2.17;;;13.30;99.90;;;;;;5089677;28;20206;-80
2022/03/13 11:56:25;;;;;;;11.50;2.47;;;13.00;99.90;;;;;;5090013;28;20198;-80
2022/03/13 11:58:54;;;;;;;9.77;1.80;;;13.20;99.90;;;;;;5088708;28;20214;-79
2022/03/13 12:01:30;;;;;;;10.77;2.20;;;13.10;99.90;;;;;;5087633;28;20622;-80
2022/03/13 12:04:23;;;;;;;10.40;2.30;;;12.80;99.90;;;;;;5082722;28;20245;-79
2022/03/13 12:06:52;;;;;;;14.40;2.67;;;12.50;99.90;;;;;;5091574;28;20234;-79
2022/03/13 12:09:26;;;;;;;13.37;2.70;;;12.70;99.90;;;;;;5089015;28;20221;-79
2022/03/13 12:12:01;;;;;;;13.20;2.73;;;12.40;99.90;;;;;;5090119;28;21734;-79
2022/03/13 12:14:50;;;;;;;10.33;2.73;;;12.70;99.90;;;;;;5095826;28;20240;-79
2022/03/13 12:17:19;;;;;;;9.43;2.13;;;12.10;99.90;;;;;;5077310;28;20199;-80
2022/03/13 12:19:47;;;;;;;10.03;2.40;;;12.00;99.90;;;;;;5079247;28;20713;-80
2022/03/13 12:22:15;;;;;;;9.53;2.17;;;11.80;99.90;;;;;;5083954;28;20740;-80
2022/03/13 12:24:51;;;;;;;10.30;2.03;;;11.80;99.90;;;;;;5088772;28;20286;-80
2022/03/13 12:27:19;;;;;;;8.70;2.30;;;11.80;99.90;;;;;;5085533;28;20198;-79
2022/03/13 12:29:50;;;;;;;12.33;2.23;;;12.30;99.90;;;;;;5089147;28;20717;-79
2022/03/13 12:32:17;;;;;;;11.77;2.70;;;12.10;99.90;;;;;;5079648;28;20281;-80
2022/03/13 12:34:44;;;;;;;10.77;2.07;;;11.60;99.90;;;;;;5083499;28;20226;-80
2022/03/13 12:37:12;;;;;;;9.57;2.20;;;11.50;99.90;;;;;;5087285;28;20613;-80
2022/03/13 12:39:50;;;;;;;11.13;2.50;;;11.70;99.90;;;;;;5084317;28;20247;-79
2022/03/13 12:42:24;;;;;;;8.47;2.10;;;12.40;99.90;;;;;;5092494;28;20297;-80
2022/03/13 12:45:04;;;;;;;13.03;2.73;;;13.40;99.90;;;;;;5080575;28;20198;-80
2022/03/13 12:47:31;;;;;;;7.70;1.93;;;14.00;99.90;;;;;;5091489;28;20202;-80
2022/03/13 12:49:59;;;;;;;8.83;1.93;;;13.90;99.90;;;;;;5082948;28;20221;-80
2022/03/13 12:52:27;;;;;;;7.37;2.30;;;13.80;99.90;;;;;;5092245;28;20205;-80
2022/03/13 12:54:58;;;;;;;8.93;2.27;;;13.90;99.90;;;;;;5090993;28;20190;-80
2022/03/13 12:57:25;;;;;;;11.87;2.50;;;14.10;99.90;;;;;;5084558;28;20233;-80
2022/03/13 12:59:52;;;;;;;13.53;3.33;;;13.80;99.90;;;;;;5085131;28;20225;-80
2022/03/13 13:02:23;;;;;;;8.87;2.00;;;13.40;99.90;;;;;;5081402;28;20757;-79
2022/03/13 13:04:52;;;;;;;10.57;2.47;;;13.20;99.90;;;;;;5082389;28;20297;-80